Kihei, HI (96753)

4:31 PM HST on June 28, 2017 (GMT -1000)
Central Kihei | | Change Station

Elev 26 ft 20.75 °N, 156.45 °W | Updated 11 minutes ago

Clear
Clear
91.7 °F
Feels Like 94 °F
N
3.0
Wind Variable Wind from ESE
Gusts 12.0 mph

Today
High -- | Low -- °F
--% Chance of Precip.
Yesterday
High -- | Low -- °F
Precip. -- in
Pressure 30.03 in
Visibility 10.0 miles
Clouds Few 3500 ft
Heat Index 94 °F
Dew Point 65 °F
Humidity 42%
Rainfall 0.00 in
Snow Depth Not available.
5:47 AM 7:10 PM
Waxing Crescent, 31% visible
METAR PHOG 290154Z 05017G27KT 10SM FEW035 31/17 A3002 RMK AO2 PK WND 07034/0111 SLP169 T03060172
Pressure 30.03 in
Visibility 10.0 miles
Clouds Few 3500 ft
Heat Index 94 °F
Dew Point 65 °F
Humidity 42%
Rainfall 0.00 in
Snow Depth Not available.
5:47 AM 7:10 PM
Waxing Crescent, 31% visible
METAR PHOG 290154Z 05017G27KT 10SM FEW035 31/17 A3002 RMK AO2 PK WND 07034/0111 SLP169 T03060172

Get Severe Weather Alerts

Thanks for signing up!

Be on the lookout for a verification email in your inbox.

You'll start receiving the daily forecast at 6 AM.

×

10-Day Weather Forecast

Almanac

Astronomy

Jun. 28, 2017 Rise Set
Actual Time
Civil Twilight
Nautical Twilight
Astronomical Twilight
Moon
Length of Visible Light
Length of Day
Tomorrow will be .
, % of the Moon is Illuminated

Today's Extremes

State Highs State Lows

Community

WunderPhotos

Category 6

Welcome to Category 6. This is the collective home for Weather Underground's featured writeups by Dr. Jeff Masters (right), Bob Henson (left), Chris Burt, and other regular contributors.

Nearby

Air Quality

  Air Quality AQ Index Pollutant
Not available.

Snow Depth

Station Depth Elevation

Earthquake Activity

City Distance Mag. Time & Date
Minimum magnitude displayed is 2.5.

Coastal Water Temperatures

Place Temperature

Stations

Nearby Weather Stations

Station Location Temp. Windchill Dew Point Humidity Wind Precip. Elev Updated Type
                   

Watches & Warnings

There are currently no watches in effect.